sensor_id;sensor_type;location;lat;lon;timestamp;temperature;humidity
16825;DHT22;8529;48.108;-1.706;2024-02-26T00:01:19;9.20;99.90
16825;DHT22;8529;48.108;-1.706;2024-02-26T00:06:13;9.20;99.90
16825;DHT22;8529;48.108;-1.706;2024-02-26T00:08:41;9.20;99.90
16825;DHT22;8529;48.108;-1.706;2024-02-26T00:11:08;9.20;99.90
16825;DHT22;8529;48.108;-1.706;2024-02-26T00:13:36;9.20;99.90
16825;DHT22;8529;48.108;-1.706;2024-02-26T00:18:30;9.20;99.90
16825;DHT22;8529;48.108;-1.706;2024-02-26T00:23:24;9.30;99.90
16825;DHT22;8529;48.108;-1.706;2024-02-26T00:28:20;9.20;99.90
16825;DHT22;8529;48.108;-1.706;2024-02-26T00:30:47;9.10;99.90
16825;DHT22;8529;48.108;-1.706;2024-02-26T00:40:38;9.30;99.90
16825;DHT22;8529;48.108;-1.706;2024-02-26T00:43:07;9.10;99.90
16825;DHT22;8529;48.108;-1.706;2024-02-26T00:45:34;9.10;99.90
16825;DHT22;8529;48.108;-1.706;2024-02-26T00:48:01;9.20;99.90
16825;DHT22;8529;48.108;-1.706;2024-02-26T00:50:30;9.20;99.90
16825;DHT22;8529;48.108;-1.706;2024-02-26T00:52:57;9.20;99.90
16825;DHT22;8529;48.108;-1.706;2024-02-26T00:55:24;9.10;99.90
16825;DHT22;8529;48.108;-1.706;2024-02-26T00:57:51;9.20;99.90
16825;DHT22;8529;48.108;-1.706;2024-02-26T01:00:20;9.20;99.90
16825;DHT22;8529;48.108;-1.706;2024-02-26T01:02:47;9.10;99.90
16825;DHT22;8529;48.108;-1.706;2024-02-26T01:05:14;9.10;99.90
16825;DHT22;8529;48.108;-1.706;2024-02-26T01:07:42;9.10;99.90
16825;DHT22;8529;48.108;-1.706;2024-02-26T01:10:09;9.10;99.90
16825;DHT22;8529;48.108;-1.706;2024-02-26T01:15:04;9.40;99.90
16825;DHT22;8529;48.108;-1.706;2024-02-26T01:27:22;9.00;99.90
16825;DHT22;8529;48.108;-1.706;2024-02-26T01:29:52;8.90;99.90
16825;DHT22;8529;48.108;-1.706;2024-02-26T01:32:19;9.00;99.90
16825;DHT22;8529;48.108;-1.706;2024-02-26T01:34:47;9.30;99.90
16825;DHT22;8529;48.108;-1.706;2024-02-26T01:37:14;9.10;99.90
16825;DHT22;8529;48.108;-1.706;2024-02-26T01:39:41;9.10;99.90
16825;DHT22;8529;48.108;-1.706;2024-02-26T01:47:04;9.30;99.90
16825;DHT22;8529;48.108;-1.706;2024-02-26T01:49:32;9.10;99.90
16825;DHT22;8529;48.108;-1.706;2024-02-26T01:52:00;9.20;99.90
16825;DHT22;8529;48.108;-1.706;2024-02-26T01:54:28;9.20;99.90
16825;DHT22;8529;48.108;-1.706;2024-02-26T01:59:23;9.10;99.90
16825;DHT22;8529;48.108;-1.706;2024-02-26T02:26:32;9.10;99.90
16825;DHT22;8529;48.108;-1.706;2024-02-26T02:29:00;9.20;99.90
16825;DHT22;8529;48.108;-1.706;2024-02-26T02:31:27;9.20;99.90
16825;DHT22;8529;48.108;-1.706;2024-02-26T02:33:54;9.20;99.90
16825;DHT22;8529;48.108;-1.706;2024-02-26T02:36:21;9.10;99.90
16825;DHT22;8529;48.108;-1.706;2024-02-26T02:38:52;9.20;99.90
16825;DHT22;8529;48.108;-1.706;2024-02-26T02:41:19;9.20;99.90
16825;DHT22;8529;48.108;-1.706;2024-02-26T02:46:13;9.40;99.90
16825;DHT22;8529;48.108;-1.706;2024-02-26T02:48:41;9.20;99.90
16825;DHT22;8529;48.108;-1.706;2024-02-26T02:51:09;9.10;99.90
16825;DHT22;8529;48.108;-1.706;2024-02-26T02:53:35;9.20;99.90
16825;DHT22;8529;48.108;-1.706;2024-02-26T02:56:04;9.20;99.90
16825;DHT22;8529;48.108;-1.706;2024-02-26T03:10:49;9.20;99.90
16825;DHT22;8529;48.108;-1.706;2024-02-26T03:32:58;9.30;99.90
16825;DHT22;8529;48.108;-1.706;2024-02-26T03:47:42;9.20;99.90
16825;DHT22;8529;48.108;-1.706;2024-02-26T03:52:36;9.20;99.90
16825;DHT22;8529;48.108;-1.706;2024-02-26T03:55:03;9.20;99.90
16825;DHT22;8529;48.108;-1.706;2024-02-26T04:12:15;9.10;99.90
16825;DHT22;8529;48.108;-1.706;2024-02-26T04:14:42;9.20;99.90
16825;DHT22;8529;48.108;-1.706;2024-02-26T04:17:09;9.20;99.90
16825;DHT22;8529;48.108;-1.706;2024-02-26T04:19:36;9.10;99.90
16825;DHT22;8529;48.108;-1.706;2024-02-26T04:22:05;9.10;99.90
16825;DHT22;8529;48.108;-1.706;2024-02-26T04:24:31;9.10;99.90
16825;DHT22;8529;48.108;-1.706;2024-02-26T04:26:58;9.10;99.90
16825;DHT22;8529;48.108;-1.706;2024-02-26T04:29:25;9.10;99.90
16825;DHT22;8529;48.108;-1.706;2024-02-26T04:34:19;9.10;99.90
16825;DHT22;8529;48.108;-1.706;2024-02-26T04:36:46;9.20;99.90
16825;DHT22;8529;48.108;-1.706;2024-02-26T04:39:14;9.20;99.90
16825;DHT22;8529;48.108;-1.706;2024-02-26T04:41:41;9.10;99.90
16825;DHT22;8529;48.108;-1.706;2024-02-26T04:44:08;9.10;99.90
16825;DHT22;8529;48.108;-1.706;2024-02-26T04:46:35;9.10;99.90
16825;DHT22;8529;48.108;-1.706;2024-02-26T04:51:29;9.10;99.90
16825;DHT22;8529;48.108;-1.706;2024-02-26T04:53:56;9.10;99.90
16825;DHT22;8529;48.108;-1.706;2024-02-26T04:56:25;9.10;99.90
16825;DHT22;8529;48.108;-1.706;2024-02-26T04:58:52;9.20;99.90
16825;DHT22;8529;48.108;-1.706;2024-02-26T05:01:19;9.20;99.90
16825;DHT22;8529;48.108;-1.706;2024-02-26T05:03:46;9.20;99.90
16825;DHT22;8529;48.108;-1.706;2024-02-26T05:06:13;9.20;99.90
16825;DHT22;8529;48.108;-1.706;2024-02-26T05:08:40;9.20;99.90
16825;DHT22;8529;48.108;-1.706;2024-02-26T05:11:09;9.20;99.90
16825;DHT22;8529;48.108;-1.706;2024-02-26T05:13:37;9.10;99.90
16825;DHT22;8529;48.108;-1.706;2024-02-26T05:16:04;9.10;99.90
16825;DHT22;8529;48.108;-1.706;2024-02-26T05:18:31;9.10;99.90
16825;DHT22;8529;48.108;-1.706;2024-02-26T05:20:58;9.10;99.90
16825;DHT22;8529;48.108;-1.706;2024-02-26T05:23:27;9.10;99.90
16825;DHT22;8529;48.108;-1.706;2024-02-26T05:25:54;9.10;99.90
16825;DHT22;8529;48.108;-1.706;2024-02-26T05:28:21;9.10;99.90
16825;DHT22;8529;48.108;-1.706;2024-02-26T05:30:49;9.10;99.90
16825;DHT22;8529;48.108;-1.706;2024-02-26T05:33:16;9.10;99.90
16825;DHT22;8529;48.108;-1.706;2024-02-26T05:35:43;9.10;99.90
16825;DHT22;8529;48.108;-1.706;2024-02-26T05:38:10;9.10;99.90
16825;DHT22;8529;48.108;-1.706;2024-02-26T05:40:37;9.10;99.90
16825;DHT22;8529;48.108;-1.706;2024-02-26T05:43:04;9.00;99.90
16825;DHT22;8529;48.108;-1.706;2024-02-26T05:45:31;9.10;99.90
16825;DHT22;8529;48.108;-1.706;2024-02-26T05:47:59;9.00;99.90
16825;DHT22;8529;48.108;-1.706;2024-02-26T05:50:26;9.10;99.90
16825;DHT22;8529;48.108;-1.706;2024-02-26T05:52:53;9.10;99.90
16825;DHT22;8529;48.108;-1.706;2024-02-26T05:55:20;9.00;99.90
16825;DHT22;8529;48.108;-1.706;2024-02-26T05:57:47;9.00;99.90
16825;DHT22;8529;48.108;-1.706;2024-02-26T06:00:15;9.00;99.90
16825;DHT22;8529;48.108;-1.706;2024-02-26T06:02:42;9.00;99.90
16825;DHT22;8529;48.108;-1.706;2024-02-26T06:05:10;9.00;99.90
16825;DHT22;8529;48.108;-1.706;2024-02-26T06:07:37;8.90;99.90
16825;DHT22;8529;48.108;-1.706;2024-02-26T06:10:05;8.90;99.90
16825;DHT22;8529;48.108;-1.706;2024-02-26T06:12:35;8.80;99.90
16825;DHT22;8529;48.108;-1.706;2024-02-26T06:15:02;8.80;99.90
16825;DHT22;8529;48.108;-1.706;2024-02-26T06:17:29;8.80;99.90
16825;DHT22;8529;48.108;-1.706;2024-02-26T06:19:56;8.70;99.90
16825;DHT22;8529;48.108;-1.706;2024-02-26T06:22:27;8.70;99.90
16825;DHT22;8529;48.108;-1.706;2024-02-26T06:24:54;8.80;99.90
16825;DHT22;8529;48.108;-1.706;2024-02-26T06:27:21;8.70;99.90
16825;DHT22;8529;48.108;-1.706;2024-02-26T06:29:48;8.70;99.90
16825;DHT22;8529;48.108;-1.706;2024-02-26T06:32:15;8.80;99.90
16825;DHT22;8529;48.108;-1.706;2024-02-26T06:46:59;8.70;99.90
16825;DHT22;8529;48.108;-1.706;2024-02-26T06:49:26;8.70;99.90
16825;DHT22;8529;48.108;-1.706;2024-02-26T06:51:53;8.70;99.90
16825;DHT22;8529;48.108;-1.706;2024-02-26T06:59:16;8.60;99.90
16825;DHT22;8529;48.108;-1.706;2024-02-26T07:01:44;8.70;99.90
16825;DHT22;8529;48.108;-1.706;2024-02-26T07:04:10;8.60;99.90
16825;DHT22;8529;48.108;-1.706;2024-02-26T07:06:37;8.60;99.90
16825;DHT22;8529;48.108;-1.706;2024-02-26T07:11:32;8.60;99.90
16825;DHT22;8529;48.108;-1.706;2024-02-26T07:14:00;8.60;99.90
16825;DHT22;8529;48.108;-1.706;2024-02-26T07:16:27;8.60;99.90
16825;DHT22;8529;48.108;-1.706;2024-02-26T07:18:54;8.50;99.90
16825;DHT22;8529;48.108;-1.706;2024-02-26T07:21:21;8.50;99.90
16825;DHT22;8529;48.108;-1.706;2024-02-26T07:23:48;8.50;99.90
16825;DHT22;8529;48.108;-1.706;2024-02-26T07:26:15;8.50;99.90
16825;DHT22;8529;48.108;-1.706;2024-02-26T07:28:44;8.50;99.90
16825;DHT22;8529;48.108;-1.706;2024-02-26T07:31:12;8.50;99.90
16825;DHT22;8529;48.108;-1.706;2024-02-26T07:33:39;8.40;99.90
16825;DHT22;8529;48.108;-1.706;2024-02-26T07:36:06;8.40;99.90
16825;DHT22;8529;48.108;-1.706;2024-02-26T07:38:33;8.40;99.90
16825;DHT22;8529;48.108;-1.706;2024-02-26T07:41:01;8.40;99.90
16825;DHT22;8529;48.108;-1.706;2024-02-26T07:43:28;8.40;99.90
16825;DHT22;8529;48.108;-1.706;2024-02-26T07:45:55;8.40;99.90
16825;DHT22;8529;48.108;-1.706;2024-02-26T07:48:23;8.40;99.90
16825;DHT22;8529;48.108;-1.706;2024-02-26T07:55:44;8.40;99.90
16825;DHT22;8529;48.108;-1.706;2024-02-26T08:03:05;8.40;99.90
16825;DHT22;8529;48.108;-1.706;2024-02-26T08:05:34;8.40;99.90
16825;DHT22;8529;48.108;-1.706;2024-02-26T08:08:06;8.40;99.90
16825;DHT22;8529;48.108;-1.706;2024-02-26T08:10:33;8.40;99.90
16825;DHT22;8529;48.108;-1.706;2024-02-26T08:13:00;8.40;99.90
16825;DHT22;8529;48.108;-1.706;2024-02-26T08:15:30;8.30;99.90
16825;DHT22;8529;48.108;-1.706;2024-02-26T08:22:56;8.30;99.90
16825;DHT22;8529;48.108;-1.706;2024-02-26T09:41:37;8.30;99.90
16825;DHT22;8529;48.108;-1.706;2024-02-26T09:44:05;8.30;99.90
16825;DHT22;8529;48.108;-1.706;2024-02-26T09:46:33;8.30;99.90
16825;DHT22;8529;48.108;-1.706;2024-02-26T10:08:48;8.30;99.90
16825;DHT22;8529;48.108;-1.706;2024-02-26T10:11:16;8.40;99.90
16825;DHT22;8529;48.108;-1.706;2024-02-26T10:13:43;8.50;99.90
16825;DHT22;8529;48.108;-1.706;2024-02-26T10:33:36;8.50;99.90
16825;DHT22;8529;48.108;-1.706;2024-02-26T10:41:01;9.80;99.90
16825;DHT22;8529;48.108;-1.706;2024-02-26T10:50:50;9.90;99.90
16825;DHT22;8529;48.108;-1.706;2024-02-26T10:55:49;9.60;99.90
16825;DHT22;8529;48.108;-1.706;2024-02-26T11:00:49;9.60;99.90
16825;DHT22;8529;48.108;-1.706;2024-02-26T11:13:12;10.60;99.90
16825;DHT22;8529;48.108;-1.706;2024-02-26T11:15:42;9.80;99.90
16825;DHT22;8529;48.108;-1.706;2024-02-26T11:18:10;9.40;99.90
16825;DHT22;8529;48.108;-1.706;2024-02-26T11:20:40;9.20;99.90
16825;DHT22;8529;48.108;-1.706;2024-02-26T11:28:13;8.80;99.90
16825;DHT22;8529;48.108;-1.706;2024-02-26T11:30:46;8.70;99.90
16825;DHT22;8529;48.108;-1.706;2024-02-26T11:33:15;8.60;99.90
16825;DHT22;8529;48.108;-1.706;2024-02-26T11:35:42;8.50;99.90
16825;DHT22;8529;48.108;-1.706;2024-02-26T11:38:17;8.50;99.90
16825;DHT22;8529;48.108;-1.706;2024-02-26T11:40:46;8.40;99.90
16825;DHT22;8529;48.108;-1.706;2024-02-26T11:43:14;8.50;99.90
16825;DHT22;8529;48.108;-1.706;2024-02-26T11:45:52;8.40;99.90
16825;DHT22;8529;48.108;-1.706;2024-02-26T11:48:21;8.60;99.90
16825;DHT22;8529;48.108;-1.706;2024-02-26T11:50:49;8.60;99.90
16825;DHT22;8529;48.108;-1.706;2024-02-26T11:53:26;8.50;99.90
16825;DHT22;8529;48.108;-1.706;2024-02-26T11:56:22;8.50;99.90
16825;DHT22;8529;48.108;-1.706;2024-02-26T11:58:53;8.50;99.90
16825;DHT22;8529;48.108;-1.706;2024-02-26T12:01:42;8.50;99.90
16825;DHT22;8529;48.108;-1.706;2024-02-26T12:04:13;8.50;99.90
16825;DHT22;8529;48.108;-1.706;2024-02-26T12:06:43;8.60;99.90
16825;DHT22;8529;48.108;-1.706;2024-02-26T12:09:10;8.60;99.90
16825;DHT22;8529;48.108;-1.706;2024-02-26T12:16:36;8.60;99.90
16825;DHT22;8529;48.108;-1.706;2024-02-26T12:36:28;8.40;99.90
16825;DHT22;8529;48.108;-1.706;2024-02-26T12:46:17;8.80;99.90
16825;DHT22;8529;48.108;-1.706;2024-02-26T12:48:43;8.30;99.90
16825;DHT22;8529;48.108;-1.706;2024-02-26T12:51:12;8.30;99.90
16825;DHT22;8529;48.108;-1.706;2024-02-26T12:53:41;8.30;99.90
16825;DHT22;8529;48.108;-1.706;2024-02-26T12:56:09;8.30;99.90
16825;DHT22;8529;48.108;-1.706;2024-02-26T12:58:38;8.30;99.90
16825;DHT22;8529;48.108;-1.706;2024-02-26T13:01:06;8.30;99.90
16825;DHT22;8529;48.108;-1.706;2024-02-26T13:03:35;8.20;99.90
16825;DHT22;8529;48.108;-1.706;2024-02-26T13:06:03;8.20;99.90
16825;DHT22;8529;48.108;-1.706;2024-02-26T13:08:32;8.20;99.90
16825;DHT22;8529;48.108;-1.706;2024-02-26T13:11:00;8.20;99.90
16825;DHT22;8529;48.108;-1.706;2024-02-26T13:13:28;8.20;99.90
16825;DHT22;8529;48.108;-1.706;2024-02-26T13:16:02;8.20;99.90
16825;DHT22;8529;48.108;-1.706;2024-02-26T13:18:29;8.30;99.90
16825;DHT22;8529;48.108;-1.706;2024-02-26T13:21:07;8.20;99.90
16825;DHT22;8529;48.108;-1.706;2024-02-26T13:23:34;8.20;99.90
16825;DHT22;8529;48.108;-1.706;2024-02-26T13:26:03;8.30;99.90
16825;DHT22;8529;48.108;-1.706;2024-02-26T13:28:30;8.20;99.90
16825;DHT22;8529;48.108;-1.706;2024-02-26T14:30:02;8.50;99.90
16825;DHT22;8529;48.108;-1.706;2024-02-26T14:32:28;8.30;99.90
16825;DHT22;8529;48.108;-1.706;2024-02-26T14:34:58;8.30;99.90
16825;DHT22;8529;48.108;-1.706;2024-02-26T14:39:52;8.30;99.90
16825;DHT22;8529;48.108;-1.706;2024-02-26T14:44:46;8.20;99.90
16825;DHT22;8529;48.108;-1.706;2024-02-26T14:54:36;8.30;99.90
16825;DHT22;8529;48.108;-1.706;2024-02-26T15:01:59;8.40;99.90
16825;DHT22;8529;48.108;-1.706;2024-02-26T15:19:10;8.40;99.90
16825;DHT22;8529;48.108;-1.706;2024-02-26T15:21:42;8.40;99.90
16825;DHT22;8529;48.108;-1.706;2024-02-26T15:24:09;8.40;99.90
16825;DHT22;8529;48.108;-1.706;2024-02-26T15:26:38;8.40;99.90
16825;DHT22;8529;48.108;-1.706;2024-02-26T15:29:06;8.40;99.90
16825;DHT22;8529;48.108;-1.706;2024-02-26T15:31:34;8.40;99.90
16825;DHT22;8529;48.108;-1.706;2024-02-26T15:34:01;8.50;99.90
16825;DHT22;8529;48.108;-1.706;2024-02-26T16:18:27;8.40;99.90
16825;DHT22;8529;48.108;-1.706;2024-02-26T16:23:22;8.50;99.90
16825;DHT22;8529;48.108;-1.706;2024-02-26T16:40:34;8.30;99.90
16825;DHT22;8529;48.108;-1.706;2024-02-26T16:43:02;8.30;99.90
16825;DHT22;8529;48.108;-1.706;2024-02-26T16:45:31;8.30;99.90
16825;DHT22;8529;48.108;-1.706;2024-02-26T16:50:25;8.30;99.90
16825;DHT22;8529;48.108;-1.706;2024-02-26T16:57:49;8.30;99.90
16825;DHT22;8529;48.108;-1.706;2024-02-26T17:00:17;8.30;99.90
16825;DHT22;8529;48.108;-1.706;2024-02-26T17:02:43;8.30;99.90
16825;DHT22;8529;48.108;-1.706;2024-02-26T17:05:12;8.30;99.90
16825;DHT22;8529;48.108;-1.706;2024-02-26T17:15:06;8.30;99.90
16825;DHT22;8529;48.108;-1.706;2024-02-26T17:17:35;8.30;99.90
16825;DHT22;8529;48.108;-1.706;2024-02-26T17:20:02;8.30;99.90
16825;DHT22;8529;48.108;-1.706;2024-02-26T17:24:57;8.20;99.90
16825;DHT22;8529;48.108;-1.706;2024-02-26T17:27:25;8.20;99.90
16825;DHT22;8529;48.108;-1.706;2024-02-26T17:34:47;8.20;99.90
16825;DHT22;8529;48.108;-1.706;2024-02-26T17:37:14;8.20;99.90
16825;DHT22;8529;48.108;-1.706;2024-02-26T17:39:41;8.20;99.90
16825;DHT22;8529;48.108;-1.706;2024-02-26T17:42:08;8.20;99.90
16825;DHT22;8529;48.108;-1.706;2024-02-26T17:44:37;8.20;99.90
16825;DHT22;8529;48.108;-1.706;2024-02-26T17:47:04;8.20;99.90
16825;DHT22;8529;48.108;-1.706;2024-02-26T17:49:32;8.30;99.90
16825;DHT22;8529;48.108;-1.706;2024-02-26T17:51:58;8.30;99.90
16825;DHT22;8529;48.108;-1.706;2024-02-26T17:54:26;8.30;99.90
16825;DHT22;8529;48.108;-1.706;2024-02-26T17:56:53;8.30;99.90
16825;DHT22;8529;48.108;-1.706;2024-02-26T17:59:20;8.40;99.90
16825;DHT22;8529;48.108;-1.706;2024-02-26T18:01:48;8.30;99.90
16825;DHT22;8529;48.108;-1.706;2024-02-26T18:04:15;8.30;99.90
16825;DHT22;8529;48.108;-1.706;2024-02-26T18:06:42;8.20;99.90
16825;DHT22;8529;48.108;-1.706;2024-02-26T18:09:11;8.20;99.90
16825;DHT22;8529;48.108;-1.706;2024-02-26T18:11:39;8.20;99.90
16825;DHT22;8529;48.108;-1.706;2024-02-26T18:14:06;8.20;99.90
16825;DHT22;8529;48.108;-1.706;2024-02-26T18:16:33;8.10;99.90
16825;DHT22;8529;48.108;-1.706;2024-02-26T18:19:01;8.10;99.90
16825;DHT22;8529;48.108;-1.706;2024-02-26T18:21:28;8.10;99.90
16825;DHT22;8529;48.108;-1.706;2024-02-26T18:23:55;8.10;99.90
16825;DHT22;8529;48.108;-1.706;2024-02-26T18:26:22;8.10;99.90
16825;DHT22;8529;48.108;-1.706;2024-02-26T18:28:49;8.10;99.90
16825;DHT22;8529;48.108;-1.706;2024-02-26T18:31:17;8.10;99.90
16825;DHT22;8529;48.108;-1.706;2024-02-26T18:33:44;8.00;99.90
16825;DHT22;8529;48.108;-1.706;2024-02-26T18:36:12;8.10;99.90
16825;DHT22;8529;48.108;-1.706;2024-02-26T18:38:40;8.10;99.90
16825;DHT22;8529;48.108;-1.706;2024-02-26T18:41:07;8.10;99.90
16825;DHT22;8529;48.108;-1.706;2024-02-26T18:43:34;8.10;99.90
16825;DHT22;8529;48.108;-1.706;2024-02-26T18:46:03;8.10;99.90
16825;DHT22;8529;48.108;-1.706;2024-02-26T18:48:29;8.10;99.90
16825;DHT22;8529;48.108;-1.706;2024-02-26T18:50:56;8.10;99.90
16825;DHT22;8529;48.108;-1.706;2024-02-26T18:53:24;8.10;99.90
16825;DHT22;8529;48.108;-1.706;2024-02-26T18:55:51;8.10;99.90
16825;DHT22;8529;48.108;-1.706;2024-02-26T18:58:18;8.10;99.90
16825;DHT22;8529;48.108;-1.706;2024-02-26T19:00:45;8.10;99.90
16825;DHT22;8529;48.108;-1.706;2024-02-26T19:03:13;8.10;99.90
16825;DHT22;8529;48.108;-1.706;2024-02-26T19:05:39;8.20;99.90
16825;DHT22;8529;48.108;-1.706;2024-02-26T19:08:06;8.20;99.90
16825;DHT22;8529;48.108;-1.706;2024-02-26T19:10:35;8.20;99.90
16825;DHT22;8529;48.108;-1.706;2024-02-26T19:13:03;8.20;99.90
16825;DHT22;8529;48.108;-1.706;2024-02-26T19:15:30;8.20;99.90
16825;DHT22;8529;48.108;-1.706;2024-02-26T19:17:59;8.10;99.90
16825;DHT22;8529;48.108;-1.706;2024-02-26T19:20:26;8.20;99.90
16825;DHT22;8529;48.108;-1.706;2024-02-26T19:22:54;8.10;99.90
16825;DHT22;8529;48.108;-1.706;2024-02-26T19:27:50;8.10;99.90
16825;DHT22;8529;48.108;-1.706;2024-02-26T19:30:17;8.10;99.90
16825;DHT22;8529;48.108;-1.706;2024-02-26T19:32:44;8.10;99.90
16825;DHT22;8529;48.108;-1.706;2024-02-26T19:35:11;8.10;99.90
16825;DHT22;8529;48.108;-1.706;2024-02-26T19:37:38;8.10;99.90
16825;DHT22;8529;48.108;-1.706;2024-02-26T19:42:32;8.20;99.90
16825;DHT22;8529;48.108;-1.706;2024-02-26T19:45:00;8.20;99.90
16825;DHT22;8529;48.108;-1.706;2024-02-26T19:47:27;8.20;99.90
16825;DHT22;8529;48.108;-1.706;2024-02-26T19:49:54;8.20;99.90
16825;DHT22;8529;48.108;-1.706;2024-02-26T19:54:49;8.20;99.90
16825;DHT22;8529;48.108;-1.706;2024-02-26T19:57:16;8.30;99.90
16825;DHT22;8529;48.108;-1.706;2024-02-26T19:59:42;8.20;99.90
16825;DHT22;8529;48.108;-1.706;2024-02-26T20:02:11;8.20;99.90
16825;DHT22;8529;48.108;-1.706;2024-02-26T20:04:37;8.20;99.90
16825;DHT22;8529;48.108;-1.706;2024-02-26T20:07:04;8.20;99.90
16825;DHT22;8529;48.108;-1.706;2024-02-26T20:19:22;8.20;99.90
16825;DHT22;8529;48.108;-1.706;2024-02-26T20:56:19;8.10;99.90
16825;DHT22;8529;48.108;-1.706;2024-02-26T20:58:47;8.20;99.90
16825;DHT22;8529;48.108;-1.706;2024-02-26T21:01:14;8.20;99.90
16825;DHT22;8529;48.108;-1.706;2024-02-26T21:11:05;7.90;99.90
